Scroll down
FLIGHT INFORMATION
ASL Airlines Belgium

TAY666

At Arrival Gate

EDDN
 EKVG
DATE: 2020-08-16
GATE:  -
GATE DEPARTURE: 13:08
TAKEOFF: 13:15
DATE: 2020-08-16
GATE:  -
LANDING: 16:12
GATE ARRIVAL: 16:16
FLIGHT DATA
Crew: 
Speed: 
836 kph
Altitude: 
34,012 ft
Stage Length: 
1,795.0 km
Block Time: 
3.1 hrs
Flight Time: 
3 hrs
Fuel Used: 
7,965 kg
Cleared Route: EDDN SULUS DIMSU GORKO GASKA ALIBU BIBEG DEMAB OBISI MASEK EDEGA MAPOX BIGGE HMM REBGU RELBI RKN LONAM SOTUN ROLUM GIGUL ODMOS RODSI GIVEM NEXUS BALID UPGET OKPAL RATPU ADN STN ADASI DOSUN NALAN MY EKVG
TRACK DATA
50,000 ft 1,000 kts
AIRCRAFT INFO AND CUMULATIVE STATS
Aircraft Type: 
B738BCF
Registration: 
SELCAL: 
MSN/LN: 
32580 / 1024
Operator: 
Total Flights: 
15
Total Block Time: 
43.3 hrs
Total Flight Time: 
40.2 hrs
Total Fuel Used: 
110,318 kg
DATALINK LOG | Newest first | Current as of: 2021-09-26 10:01:13
LABEL SEQUENCE CONTENT Dn/Up
QD162016:16 7.9▼ Dn
QC121616:12▼ Dn
GA2231ADVANCED GATE ASSIGNMENTS NOT YET AVAILABLE AT THIS AIRPORT▲ Up
GR2231EKVG 15:57 MAAS YP/UM WCHR/S/C HI-VAL YES▼ Dn
2U2251EKVG 161450Z AUTO 30005KT 250V340 9999 BKN007/// 13/13 Q1020▲ Up
2S2129EKVG▼ Dn
5R1933GIGUL 14:19z FL339 ODMOS 14:21z RODSI M0.75 7.8 -50 150/17 RW12 15:57z▼ Dn
UM64 UM695521OFFSET 010 NM LEFT OF ROUTE. REJOIN ROUTE BY 15 MINUTES PAST THE HOUR▲ Up
DM155510REQUEST OFFSET 010 NM LEFT OF ROUTE▼ Dn
UM0 UM195420UNABLE. MAINTAIN ASSIGNED ALTITUDE▲ Up
DM545409WHEN CAN WE EXPECT CRUISE CLIMB TO FL 380▼ Dn
UM0 UM195217UNABLE. MAINTAIN ASSIGNED ALTITUDE▲ Up
DM65207REQUEST FL 380 DUE TO A/C PERF▼ Dn
QB143413:15▼ Dn
QA072713:08 25.5▼ Dn
5U4721EKVG 161641Z 12008KT 3000 BKN005 BKN014 14/14 Q1020▲ Up
2U4716EDDN 161220Z 11007KT 060V170 9999 SCT039 28/16 Q1013 NOSIG▲ Up
5S4608EKVG▼ Dn
2S4608EDDN▼ Dn
A33801CLEARED TO EKVG VIA SULU3M SULUS L604 BIGGE T281 HMM L602 RKN LONAM M90 ROLUM P1 GIGUL N44 ODMOS P58 GIVEM M90 NEXUS UP18 ADN UN591 STN UN614 DOSUN NALAN MY. SQUAWK .▲ Up
B33800EDDN EKVG TAY666 OEIMC ▼ Dn
Q02043[LINK ACK]▲ Up
Q02043[LINK TEST]▼ Dn


AIRCRAFT HISTORY
FLIGHT DATE FLIGHT NO. ORIGIN DESTINATION CLEARED ROUTE BLOCK TIME FLIGHT TIME FUEL USED PILOT
2021-07-08TAY708LOWW EBBR LOWW MEDIX LAMSI RUDNO ESAMA UMUPU ADMUM DEVRU GEBSO ASDAK BATTY EBBR1.6 hrs1.4 hrs9,190 lbAlex K.
2021-02-05TAY205LOWI LOWW LOWI RTT NEMAL LOWW1.2 hrs1 hrs6,485 lbMarc O'Eland
2020-10-17TAY666BIKF LOWI BIKF VM RATSU BARKU BILLY STN HON DVR DIK KRH TEDGO XEBIX LOWI3.9 hrs3.7 hrs22,065 lbMarc O'Eland
2020-10-16TAY666CYUL BIKF CYUL ANTEG OBRON MOBUB EBMOS YQB BAREE YBC DORYY 5850N 6140N 6330N EPENI ELDIS KFV BIKF4.4 hrs4.2 hrs25,102 lbMarc O'Eland
2020-10-10TAY666TNCM CYUL TNCM MODOR TRNKY YIYYO OPAUL QNEPA DUPAN BRKZZ GECAL SICKL ROOFE PIERC LITTL GUICE FLAMO BOVIC KINER TILED MARIG LINND NAROW FLUTE SCOOR FINIT LEOES GRAPT THROP FATON SHERL JFK LLUND DUEYS GANDE IGN ATHOS ALB LAMED PBERG CYUL4.8 hrs4.6 hrs29,612 lbMarc O'Eland
2020-10-02TAY1002KAVL TNCM 3.7 hrs3.4 hrs20,338 lbMarc O'Eland
2020-10-02TAY1002KMSP KAVL KMSP ODI SIBER BRIBE COTON JOT VHP SOT KAVL2 hrs1.9 hrs11,214 lbMarc O'Eland
2020-09-27TAY666KTUL KMSP KTUL TUL CNU RUGBB KARMA FUZEE FGT KMSP1.7 hrs1.5 hrs9,348 lbMarc O'Eland
2020-09-22TAY1922KABQ KTUL 1.5 hrs1.3 hrs8,886 lbKevin Hall
2020-09-22TAY922KDEN KABQ KDEN SUDDZ DATME KABQ1.3 hrs1 hrs6,946 lbKevin Hall
2020-09-11TAY666KPHX KDEN KPHX YOOPR SHNPS KDEN1.6 hrs1.4 hrs9,228 lbMarc O'Eland
2020-08-22TAY666KBOS KPHX KBOS NHANT HURBE STAYC SHAAN HYLND SYR YXU FNT DEWIT HASTE PMM KG72K KP69G KP66E AYEGI KD57A KD51Y KD45W KA39U GUP KPHX5.2 hrs5 hrs28,437 lbMarc O'Eland
2020-08-17TAY666EKVG KBOS EKVG MY 6210N 6220N 6130N 5940N 5650N MELDI TOPPS AJJAY KBOS6.3 hrs6 hrs34,110 lbMarc O'Eland
2020-08-16TAY666EDDN EKVG EDDN SULUS DIMSU GORKO GASKA ALIBU BIBEG DEMAB OBISI MASEK EDEGA MAPOX BIGGE HMM REBGU RELBI RKN LONAM SOTUN ROLUM GIGUL ODMOS RODSI GIVEM NEXUS BALID UPGET OKPAL RATPU ADN STN ADASI DOSUN NALAN MY EKVG3.1 hrs3 hrs17,559 lbMarc O'Eland
2020-08-16TAY816LOWW EDDN LOWW LUGEM SUBEN NENUM AKINI EDDN1 hrs0.8 hrs4,689 lbMarc O'Eland